Time;durP1;ratioP1;P1;durP2;ratioP2;P2;SDS_P1;SDS_P2;PMS_P1;PMS_P2;Temp;Humidity;BMP_temperature;BMP_pressure;BME280_temperature;BME280_humidity;BME280_pressure;Samples;Min_cycle;Max_cycle;Signal;HPM_P1;HPM_P2
2024/01/19 00:01:10;;;;;;;88.07;34.55;;;0.20;99.90;;;;;;5042010;28;20025;-73
2024/01/19 00:03:36;;;;;;;81.57;33.90;;;0.20;99.90;;;;;;5035554;28;20495;-73
2024/01/19 00:06:02;;;;;;;80.30;34.42;;;0.30;99.90;;;;;;5037899;28;20025;-71
2024/01/19 00:08:28;;;;;;;83.97;32.63;;;0.30;99.90;;;;;;5035494;28;20115;-73
2024/01/19 00:10:54;;;;;;;81.38;34.33;;;0.30;99.90;;;;;;5038580;28;20079;-73
2024/01/19 00:13:19;;;;;;;88.93;36.13;;;0.40;99.90;;;;;;5035615;28;20719;-72
2024/01/19 00:15:45;;;;;;;85.38;35.50;;;0.40;99.90;;;;;;5038553;28;20485;-72
2024/01/19 00:18:11;;;;;;;79.00;32.53;;;0.40;99.90;;;;;;5038244;28;20037;-73
2024/01/19 00:20:37;;;;;;;92.95;35.20;;;0.50;99.90;;;;;;5035536;28;20111;-72
2024/01/19 00:23:03;;;;;;;90.68;35.47;;;0.40;99.90;;;;;;5035491;28;20025;-73
2024/01/19 00:25:29;;;;;;;76.50;32.40;;;0.40;99.90;;;;;;5035204;28;20087;-73
2024/01/19 00:27:55;;;;;;;81.55;32.40;;;0.40;99.90;;;;;;5041156;28;20400;-73
2024/01/19 00:30:20;;;;;;;79.13;32.03;;;0.40;99.90;;;;;;5037587;28;20127;-73
2024/01/19 00:32:46;;;;;;;84.00;34.95;;;0.50;99.90;;;;;;5030076;28;20075;-73
2024/01/19 00:35:12;;;;;;;95.00;36.85;;;0.40;99.90;;;;;;5029899;28;20534;-72
2024/01/19 00:37:37;;;;;;;74.55;33.50;;;0.40;99.90;;;;;;5031125;28;20037;-73
2024/01/19 00:40:11;;;;;;;90.75;37.70;;;0.40;99.90;;;;;;5031944;28;20497;-73
2024/01/19 00:42:38;;;;;;;84.32;36.08;;;0.40;99.90;;;;;;5033036;28;20072;-72
2024/01/19 00:45:05;;;;;;;84.15;34.95;;;0.50;99.90;;;;;;5028402;28;20060;-73
2024/01/19 00:47:32;;;;;;;95.10;45.47;;;0.40;99.90;;;;;;5029538;28;20160;-73
2024/01/19 00:49:58;;;;;;;91.57;36.20;;;0.30;99.90;;;;;;5030227;28;20048;-73
2024/01/19 00:52:23;;;;;;;82.55;34.40;;;0.30;99.90;;;;;;5027735;28;20061;-73
2024/01/19 00:54:49;;;;;;;89.78;35.53;;;0.40;99.90;;;;;;5029303;28;20413;-73
2024/01/19 00:57:15;;;;;;;100.70;36.92;;;0.50;99.90;;;;;;5030279;28;20541;-73
2024/01/19 00:59:40;;;;;;;91.57;36.58;;;0.50;99.90;;;;;;5031286;28;20545;-73
2024/01/19 01:02:06;;;;;;;90.63;38.25;;;0.50;99.90;;;;;;5031968;28;20501;-72
2024/01/19 01:04:31;;;;;;;83.95;35.33;;;0.50;99.90;;;;;;5032754;28;20711;-73
2024/01/19 01:06:57;;;;;;;94.05;37.70;;;0.50;99.90;;;;;;5029675;28;20383;-73
2024/01/19 01:09:23;;;;;;;103.63;41.03;;;0.50;99.90;;;;;;5031747;28;20391;-72
2024/01/19 01:11:48;;;;;;;92.05;37.30;;;0.50;99.90;;;;;;5030346;28;20434;-73
2024/01/19 01:14:15;;;;;;;93.68;40.05;;;0.60;99.90;;;;;;5031442;28;20434;-73
2024/01/19 01:16:41;;;;;;;91.43;40.03;;;0.60;99.90;;;;;;5029833;28;20025;-73
2024/01/19 01:19:08;;;;;;;86.63;37.63;;;0.60;99.90;;;;;;5033309;28;20487;-73
2024/01/19 01:21:33;;;;;;;93.15;37.65;;;0.50;99.90;;;;;;5032229;28;20032;-73
2024/01/19 01:23:59;;;;;;;91.40;39.40;;;0.60;99.90;;;;;;5031138;28;20029;-73
2024/01/19 01:26:25;;;;;;;95.63;39.15;;;0.60;99.90;;;;;;5033435;28;20071;-73
2024/01/19 01:28:51;;;;;;;80.60;37.17;;;0.60;99.90;;;;;;5030326;28;20544;-73
2024/01/19 01:31:17;;;;;;;81.25;34.33;;;0.60;99.90;;;;;;5036823;28;20026;-73
2024/01/19 01:33:42;;;;;;;81.07;35.55;;;0.50;99.90;;;;;;5040611;28;20090;-73
2024/01/19 01:36:08;;;;;;;79.68;35.33;;;0.60;99.90;;;;;;5044536;28;20041;-73
2024/01/19 01:38:34;;;;;;;69.82;32.05;;;0.50;99.90;;;;;;5039633;28;20517;-73
2024/01/19 01:41:00;;;;;;;74.38;33.92;;;0.60;99.90;;;;;;5033488;28;20022;-73
2024/01/19 01:43:25;;;;;;;62.65;29.70;;;0.50;99.90;;;;;;5070637;28;20024;-73
2024/01/19 01:45:52;;;;;;;66.38;32.78;;;0.60;99.90;;;;;;5052711;28;20025;-73
2024/01/19 01:48:19;;;;;;;69.80;32.28;;;0.50;99.90;;;;;;5051651;28;20488;-73
2024/01/19 01:50:45;;;;;;;69.05;31.02;;;0.50;99.90;;;;;;5046904;28;20032;-73
2024/01/19 01:53:13;;;;;;;70.82;32.50;;;0.40;99.90;;;;;;5043213;28;20036;-73
2024/01/19 01:55:39;;;;;;;81.50;34.38;;;0.40;99.90;;;;;;5050994;28;20040;-73
2024/01/19 01:58:05;;;;;;;67.75;32.17;;;0.40;99.90;;;;;;5050972;28;20021;-72
2024/01/19 02:00:32;;;;;;;72.85;34.65;;;0.50;99.90;;;;;;5053847;28;20028;-72
2024/01/19 02:03:01;;;;;;;76.47;33.38;;;0.60;99.90;;;;;;5060478;28;20116;-73
2024/01/19 02:05:27;;;;;;;74.60;31.65;;;0.70;99.90;;;;;;5051606;28;20017;-73
2024/01/19 02:07:52;;;;;;;74.80;32.65;;;0.80;99.90;;;;;;5050587;28;20116;-72
2024/01/19 02:10:18;;;;;;;70.78;32.95;;;0.70;99.90;;;;;;5049540;28;20025;-72
2024/01/19 02:12:44;;;;;;;63.13;30.52;;;0.80;99.90;;;;;;5050954;28;20018;-73
2024/01/19 02:15:24;;;;;;;64.95;29.35;;;0.80;99.90;;;;;;5051176;28;20025;-73
2024/01/19 02:17:51;;;;;;;64.72;31.20;;;0.80;99.90;;;;;;5049834;28;20025;-73
2024/01/19 02:20:17;;;;;;;62.28;29.85;;;0.70;99.90;;;;;;5048117;28;20478;-73
2024/01/19 02:22:43;;;;;;;59.95;29.77;;;0.60;99.90;;;;;;5031930;28;20097;-73
2024/01/19 02:25:10;;;;;;;66.63;30.25;;;0.60;99.90;;;;;;5031339;28;20068;-73
2024/01/19 02:27:36;;;;;;;59.38;30.35;;;0.70;99.90;;;;;;5057555;28;20305;-73
2024/01/19 02:30:02;;;;;;;63.85;32.78;;;0.70;99.90;;;;;;5071383;28;20345;-73
2024/01/19 02:32:28;;;;;;;59.70;29.88;;;0.70;99.90;;;;;;5055254;28;20551;-73
2024/01/19 02:34:53;;;;;;;62.92;33.15;;;0.60;99.90;;;;;;5030723;28;20060;-73
2024/01/19 02:37:20;;;;;;;60.05;32.03;;;0.70;99.90;;;;;;5037752;28;20345;-73
2024/01/19 02:39:46;;;;;;;60.58;31.30;;;0.70;99.90;;;;;;5069287;28;20040;-73
2024/01/19 02:42:11;;;;;;;68.22;31.05;;;0.70;99.90;;;;;;5070513;28;20381;-73
2024/01/19 02:44:37;;;;;;;59.15;30.33;;;0.60;99.90;;;;;;5071336;28;20033;-73
2024/01/19 02:47:03;;;;;;;58.95;29.48;;;0.60;99.90;;;;;;5073773;28;20048;-73
2024/01/19 02:49:29;;;;;;;54.53;29.20;;;0.60;99.90;;;;;;5073620;28;20043;-73
2024/01/19 02:51:55;;;;;;;62.63;30.77;;;0.60;99.90;;;;;;5073582;28;20028;-73
2024/01/19 02:54:20;;;;;;;51.95;27.23;;;0.60;99.90;;;;;;5074297;28;20107;-72
2024/01/19 02:56:46;;;;;;;48.30;26.55;;;0.60;99.90;;;;;;5059438;28;20048;-72
2024/01/19 02:59:12;;;;;;;45.20;24.35;;;0.60;99.90;;;;;;5053993;28;20033;-73
2024/01/19 03:01:37;;;;;;;46.50;26.00;;;0.50;99.90;;;;;;5054584;28;20428;-73
2024/01/19 03:04:03;;;;;;;45.35;25.02;;;0.50;99.90;;;;;;5051544;28;20728;-73
2024/01/19 03:06:29;;;;;;;53.10;26.40;;;0.50;99.90;;;;;;5054176;28;20493;-73
2024/01/19 03:08:55;;;;;;;49.30;25.30;;;0.50;99.90;;;;;;5054308;28;20029;-73
2024/01/19 03:11:21;;;;;;;69.63;29.40;;;0.50;99.90;;;;;;5054054;28;20040;-72
2024/01/19 03:13:49;;;;;;;59.05;26.63;;;0.50;99.90;;;;;;5054503;28;20024;-73
2024/01/19 03:16:15;;;;;;;61.67;27.77;;;0.50;99.90;;;;;;5056446;28;20104;-73
2024/01/19 03:18:41;;;;;;;69.30;29.95;;;0.60;99.90;;;;;;5074408;28;20037;-73
2024/01/19 03:21:08;;;;;;;80.72;32.63;;;0.50;99.90;;;;;;5063488;28;20025;-73
2024/01/19 03:23:33;;;;;;;75.60;32.78;;;0.50;99.90;;;;;;5052677;28;20028;-73
2024/01/19 03:25:59;;;;;;;77.10;35.50;;;0.40;99.90;;;;;;5052660;28;20830;-72
2024/01/19 03:28:25;;;;;;;80.68;35.33;;;0.50;99.90;;;;;;5054563;28;20534;-73
2024/01/19 03:30:51;;;;;;;91.20;36.90;;;0.50;99.90;;;;;;5054383;28;20060;-73
2024/01/19 03:33:16;;;;;;;107.05;39.38;;;0.50;99.90;;;;;;5053766;28;20462;-73
2024/01/19 03:35:42;;;;;;;88.30;38.33;;;0.60;99.90;;;;;;5053078;28;20029;-73
2024/01/19 03:38:08;;;;;;;91.07;37.65;;;0.60;99.90;;;;;;5053105;28;20130;-73
2024/01/19 03:40:33;;;;;;;86.40;36.80;;;0.60;99.90;;;;;;5054285;28;20029;-73
2024/01/19 03:42:59;;;;;;;86.00;35.97;;;0.60;99.90;;;;;;5051984;28;20381;-73
2024/01/19 03:45:25;;;;;;;89.72;35.40;;;0.60;99.90;;;;;;5053597;28;20044;-73
2024/01/19 03:47:51;;;;;;;99.25;38.55;;;0.60;99.90;;;;;;5071501;28;20031;-73
2024/01/19 03:50:16;;;;;;;88.22;34.60;;;0.60;99.90;;;;;;5074135;28;20501;-73
2024/01/19 03:52:43;;;;;;;85.47;37.00;;;0.60;99.90;;;;;;5072633;28;20024;-73
2024/01/19 03:55:09;;;;;;;92.45;36.05;;;0.60;99.90;;;;;;5072885;28;20035;-73
2024/01/19 03:57:34;;;;;;;81.47;32.58;;;0.50;99.90;;;;;;5053502;28;20377;-73
2024/01/19 04:00:00;;;;;;;97.78;36.00;;;0.60;99.90;;;;;;5051565;28;20033;-73
2024/01/19 04:02:26;;;;;;;91.63;36.03;;;0.50;99.90;;;;;;5052720;28;20082;-73
2024/01/19 04:04:52;;;;;;;84.00;33.35;;;0.50;99.90;;;;;;5052214;28;20036;-72
2024/01/19 04:07:17;;;;;;;99.47;37.05;;;0.50;99.90;;;;;;5051943;28;20049;-73
2024/01/19 04:09:43;;;;;;;85.78;34.92;;;0.60;99.90;;;;;;5052227;28;20122;-73
2024/01/19 04:12:14;;;;;;;81.15;34.05;;;0.50;99.90;;;;;;5064671;28;20123;-73
2024/01/19 04:14:42;;;;;;;86.80;36.30;;;0.40;99.90;;;;;;5073591;28;20016;-73
2024/01/19 04:17:08;;;;;;;92.30;37.53;;;0.40;99.90;;;;;;5072637;28;20389;-73
2024/01/19 04:19:34;;;;;;;81.18;34.00;;;0.50;99.90;;;;;;5072921;28;20505;-73
2024/01/19 04:22:00;;;;;;;89.80;35.17;;;0.50;99.90;;;;;;5071696;28;20101;-72
2024/01/19 04:24:26;;;;;;;84.70;33.75;;;0.50;99.90;;;;;;5073008;28;20461;-73
2024/01/19 04:26:52;;;;;;;85.78;35.00;;;0.50;99.90;;;;;;5072868;28;20393;-73
2024/01/19 04:29:17;;;;;;;81.40;33.63;;;0.40;99.90;;;;;;5052371;28;20036;-73
2024/01/19 04:31:43;;;;;;;76.63;33.08;;;0.50;99.90;;;;;;5039740;28;20033;-73
2024/01/19 04:34:09;;;;;;;85.40;33.90;;;0.40;99.90;;;;;;5052909;28;20485;-73
2024/01/19 04:36:34;;;;;;;83.80;30.63;;;0.50;99.90;;;;;;5068318;28;20085;-73
2024/01/19 04:39:00;;;;;;;71.28;30.92;;;0.50;99.90;;;;;;5072226;28;20044;-73
2024/01/19 04:41:26;;;;;;;76.00;31.75;;;0.50;99.90;;;;;;5054458;28;20029;-73
2024/01/19 04:43:51;;;;;;;71.72;31.35;;;0.50;99.90;;;;;;5052018;28;20024;-73
2024/01/19 04:46:17;;;;;;;76.75;33.95;;;0.50;99.90;;;;;;5052949;28;20474;-73
2024/01/19 04:48:43;;;;;;;77.07;33.30;;;0.40;99.90;;;;;;5052823;28;20029;-73
2024/01/19 04:51:08;;;;;;;74.97;33.70;;;0.50;99.90;;;;;;5054698;28;20381;-73
2024/01/19 04:53:34;;;;;;;72.85;30.85;;;0.40;99.90;;;;;;5070734;28;20495;-73
2024/01/19 04:56:04;;;;;;;71.30;30.42;;;0.40;99.90;;;;;;5072697;28;20026;-73
2024/01/19 04:58:29;;;;;;;77.60;32.53;;;0.40;99.90;;;;;;5072727;28;20028;-73
2024/01/19 05:00:55;;;;;;;71.00;29.83;;;0.40;99.90;;;;;;5071812;28;20119;-73
2024/01/19 05:03:20;;;;;;;73.57;29.38;;;0.30;99.90;;;;;;5072032;28;20382;-73
2024/01/19 05:05:46;;;;;;;71.32;31.48;;;0.30;99.90;;;;;;5071048;28;20027;-73
2024/01/19 05:08:12;;;;;;;76.45;31.88;;;0.30;99.90;;;;;;5050113;28;20507;-72
2024/01/19 05:10:37;;;;;;;76.93;34.22;;;0.40;99.90;;;;;;5052863;28;20021;-73
2024/01/19 05:13:03;;;;;;;72.95;30.77;;;0.50;99.90;;;;;;5051799;28;20016;-72
2024/01/19 05:15:30;;;;;;;73.90;31.65;;;0.50;99.90;;;;;;5058340;28;20052;-73
2024/01/19 05:17:57;;;;;;;73.63;31.20;;;0.40;99.90;;;;;;5057450;28;20028;-73
2024/01/19 05:20:23;;;;;;;69.25;30.25;;;0.40;99.90;;;;;;5052045;28;20432;-73
2024/01/19 05:22:48;;;;;;;69.43;31.42;;;0.40;99.90;;;;;;5051824;28;20025;-73
2024/01/19 05:25:18;;;;;;;72.10;30.58;;;0.50;99.90;;;;;;5052221;28;20381;-73
2024/01/19 05:27:44;;;;;;;72.45;31.02;;;0.40;99.90;;;;;;5052227;28;20041;-73
2024/01/19 05:30:10;;;;;;;74.85;29.55;;;0.40;99.90;;;;;;5051314;28;20044;-72
2024/01/19 05:32:36;;;;;;;72.35;30.05;;;0.40;99.90;;;;;;5058177;28;20028;-73
2024/01/19 05:35:02;;;;;;;75.85;30.00;;;0.40;99.90;;;;;;5072070;28;20492;-72
2024/01/19 05:37:27;;;;;;;61.15;28.02;;;0.30;99.90;;;;;;5071232;28;20116;-73
2024/01/19 05:39:53;;;;;;;75.22;30.15;;;0.40;99.90;;;;;;5071712;28;20079;-73
2024/01/19 05:42:18;;;;;;;63.65;27.17;;;0.40;99.90;;;;;;5064524;28;20046;-73
2024/01/19 05:44:45;;;;;;;65.72;29.55;;;0.40;99.90;;;;;;5039604;28;20470;-73
2024/01/19 05:47:11;;;;;;;65.70;28.20;;;0.30;99.90;;;;;;5031113;28;20108;-73
2024/01/19 05:49:39;;;;;;;57.78;27.33;;;0.40;99.90;;;;;;5032388;28;20076;-73
2024/01/19 05:52:05;;;;;;;61.58;26.02;;;0.40;99.90;;;;;;5030933;28;20030;-73
2024/01/19 05:54:33;;;;;;;60.30;28.17;;;0.30;99.90;;;;;;5032012;28;20055;-73
2024/01/19 05:56:59;;;;;;;71.35;27.90;;;0.20;99.90;;;;;;5031557;28;20033;-73
2024/01/19 05:59:24;;;;;;;63.15;27.90;;;0.20;99.90;;;;;;5042783;28;20499;-73
2024/01/19 06:01:50;;;;;;;54.95;25.48;;;0.20;99.90;;;;;;5051852;28;20526;-73
2024/01/19 06:04:16;;;;;;;54.80;24.30;;;0.20;99.90;;;;;;5050284;28;20486;-73
2024/01/19 06:06:42;;;;;;;60.58;24.88;;;0.20;99.90;;;;;;5056261;28;20536;-73
2024/01/19 06:09:08;;;;;;;54.60;23.38;;;0.20;99.90;;;;;;5070896;28;20064;-73
2024/01/19 06:11:33;;;;;;;56.10;24.40;;;0.20;99.90;;;;;;5071679;28;20469;-73
2024/01/19 06:13:59;;;;;;;60.20;25.05;;;0.20;99.90;;;;;;5071371;28;20475;-73
2024/01/19 06:16:25;;;;;;;59.88;24.63;;;0.20;99.90;;;;;;5071099;28;20032;-73
2024/01/19 06:18:50;;;;;;;56.80;24.77;;;0.10;99.90;;;;;;5065798;28;20025;-73
2024/01/19 06:21:16;;;;;;;53.03;23.35;;;0.10;99.90;;;;;;5052229;28;20503;-73
2024/01/19 06:23:42;;;;;;;57.60;23.90;;;0.10;99.90;;;;;;5066857;28;20107;-72
2024/01/19 06:26:09;;;;;;;52.60;25.23;;;0.10;99.90;;;;;;5075504;28;20027;-73
2024/01/19 06:28:35;;;;;;;53.10;24.98;;;0.00;99.90;;;;;;5066817;28;20063;-73
2024/01/19 06:31:03;;;;;;;54.00;23.27;;;0.10;99.90;;;;;;5042744;28;20421;-73
2024/01/19 06:33:29;;;;;;;51.45;24.90;;;0.10;99.90;;;;;;5034891;28;20489;-73
2024/01/19 06:35:56;;;;;;;51.58;23.05;;;0.10;99.90;;;;;;5035475;28;20028;-73
2024/01/19 06:38:23;;;;;;;56.17;24.98;;;0.10;99.90;;;;;;5056754;28;20033;-73
2024/01/19 06:40:49;;;;;;;51.65;25.15;;;0.10;99.90;;;;;;5054632;28;20024;-72
2024/01/19 06:43:15;;;;;;;55.13;23.88;;;0.20;99.90;;;;;;5054856;28;20470;-72
2024/01/19 06:45:41;;;;;;;59.30;25.65;;;0.10;99.90;;;;;;5052923;28;20023;-72
2024/01/19 06:48:07;;;;;;;55.55;25.08;;;0.20;99.90;;;;;;5053524;28;20020;-73
2024/01/19 06:50:33;;;;;;;50.42;23.60;;;0.20;99.90;;;;;;5054381;28;20104;-72
2024/01/19 06:53:00;;;;;;;50.47;24.40;;;0.20;99.90;;;;;;5052245;28;20036;-72
2024/01/19 06:55:27;;;;;;;60.15;25.60;;;0.20;99.90;;;;;;5054858;28;20470;-72
2024/01/19 06:57:53;;;;;;;59.92;25.05;;;0.20;99.90;;;;;;5054106;28;20099;-73
2024/01/19 07:00:19;;;;;;;54.83;25.73;;;0.20;99.90;;;;;;5072529;28;20032;-73
2024/01/19 07:02:45;;;;;;;59.47;24.40;;;0.20;99.90;;;;;;5075045;28;20514;-73
2024/01/19 07:05:11;;;;;;;63.47;26.23;;;0.20;99.90;;;;;;5074962;28;20028;-73
2024/01/19 07:07:37;;;;;;;52.08;24.00;;;0.20;99.90;;;;;;5057976;28;20033;-73
2024/01/19 07:10:03;;;;;;;51.67;25.95;;;0.20;99.90;;;;;;5054417;28;20022;-73
2024/01/19 07:12:29;;;;;;;56.13;25.70;;;0.20;99.90;;;;;;5053928;28;20473;-72
2024/01/19 07:14:55;;;;;;;55.10;24.50;;;0.30;99.90;;;;;;5054206;28;20075;-72
2024/01/19 07:17:21;;;;;;;59.05;26.92;;;0.20;99.90;;;;;;5054281;28;20055;-72
2024/01/19 07:19:46;;;;;;;51.53;23.95;;;0.30;99.90;;;;;;5069317;28;20041;-73
2024/01/19 07:22:12;;;;;;;51.45;24.20;;;0.30;99.90;;;;;;5073145;28;20480;-73
2024/01/19 07:24:38;;;;;;;50.08;23.13;;;0.20;99.90;;;;;;5074868;28;20140;-73
2024/01/19 07:27:04;;;;;;;51.88;24.13;;;0.20;99.90;;;;;;5063517;28;20470;-73
2024/01/19 07:29:31;;;;;;;52.35;25.13;;;0.20;99.90;;;;;;5073586;28;20146;-73
2024/01/19 07:31:57;;;;;;;54.10;24.98;;;0.30;99.90;;;;;;5058572;28;20057;-73
2024/01/19 07:34:23;;;;;;;41.50;22.55;;;0.30;99.90;;;;;;5033734;28;20037;-72
2024/01/19 07:36:49;;;;;;;47.03;22.95;;;0.30;99.90;;;;;;5033960;28;20025;-73
2024/01/19 07:39:15;;;;;;;47.95;23.10;;;0.30;99.90;;;;;;5033795;28;20601;-73
2024/01/19 07:41:41;;;;;;;51.45;23.27;;;0.30;99.90;;;;;;5041677;28;20100;-73
2024/01/19 07:44:07;;;;;;;52.30;23.48;;;0.30;99.90;;;;;;5043249;28;20079;-72
2024/01/19 07:46:33;;;;;;;53.85;23.75;;;0.20;99.90;;;;;;5053714;28;20021;-73
2024/01/19 07:48:59;;;;;;;48.92;23.95;;;0.30;99.90;;;;;;5053917;28;20029;-72
2024/01/19 07:51:24;;;;;;;42.58;23.25;;;0.20;99.90;;;;;;5052349;28;20429;-72
2024/01/19 07:53:50;;;;;;;50.85;25.05;;;0.20;99.90;;;;;;5052103;28;20020;-72
2024/01/19 07:56:16;;;;;;;39.15;21.67;;;0.20;99.90;;;;;;5049052;28;20029;-73
2024/01/19 07:58:43;;;;;;;44.42;22.15;;;0.20;99.90;;;;;;5033040;28;20026;-72
2024/01/19 08:01:10;;;;;;;49.70;23.95;;;0.20;99.90;;;;;;5035720;28;20095;-73
2024/01/19 08:03:38;;;;;;;43.13;23.13;;;0.20;99.90;;;;;;5052118;28;20025;-72
2024/01/19 08:06:04;;;;;;;39.38;20.70;;;0.10;99.90;;;;;;5047350;28;20025;-72
2024/01/19 08:08:30;;;;;;;38.05;20.30;;;0.20;99.90;;;;;;5049722;28;20037;-73
2024/01/19 08:10:56;;;;;;;45.58;22.65;;;0.20;99.90;;;;;;4999289;28;20275;-73
2024/01/19 08:13:22;;;;;;;44.38;21.55;;;0.20;99.90;;;;;;4937811;28;20021;-73
2024/01/19 08:15:48;;;;;;;41.95;22.75;;;0.20;99.90;;;;;;4920670;28;20089;-73
2024/01/19 08:18:13;;;;;;;42.47;23.58;;;0.20;99.90;;;;;;4955608;28;20077;-73
2024/01/19 08:20:39;;;;;;;46.05;24.00;;;0.20;99.90;;;;;;5050077;28;20021;-73
2024/01/19 08:23:05;;;;;;;46.35;22.85;;;0.30;99.90;;;;;;5062061;28;20390;-72
2024/01/19 08:25:30;;;;;;;46.63;23.85;;;0.20;99.90;;;;;;5047364;28;20151;-73
2024/01/19 08:27:56;;;;;;;43.90;21.60;;;0.20;99.90;;;;;;5051166;28;20029;-73
2024/01/19 08:30:22;;;;;;;45.75;23.05;;;0.20;99.90;;;;;;5055222;28;20027;-72
2024/01/19 08:32:48;;;;;;;49.15;22.27;;;0.20;99.90;;;;;;5057147;28;20033;-73
2024/01/19 08:35:13;;;;;;;44.63;20.67;;;0.30;99.90;;;;;;5051470;28;20095;-73
2024/01/19 08:37:40;;;;;;;42.45;20.35;;;0.30;99.90;;;;;;5056868;28;20513;-74
2024/01/19 08:40:11;;;;;;;48.80;22.02;;;0.30;99.90;;;;;;5051127;28;20425;-74
2024/01/19 08:42:38;;;;;;;49.50;23.48;;;0.40;99.90;;;;;;5052142;28;20482;-72
2024/01/19 08:45:04;;;;;;;57.53;26.02;;;0.40;99.90;;;;;;5057039;28;20031;-73
2024/01/19 08:47:30;;;;;;;52.60;25.65;;;0.40;99.90;;;;;;5051690;28;20033;-72
2024/01/19 08:49:56;;;;;;;58.58;27.83;;;0.40;99.90;;;;;;5048246;28;20024;-73
2024/01/19 08:52:22;;;;;;;54.88;28.10;;;0.40;99.90;;;;;;5050292;28;20017;-72
2024/01/19 08:55:04;;;;;;;58.25;28.98;;;0.30;99.90;;;;;;5055320;28;20022;-73
2024/01/19 08:57:32;;;;;;;57.42;27.05;;;0.40;99.90;;;;;;5049433;28;20028;-73
2024/01/19 08:59:58;;;;;;;43.42;22.92;;;0.40;99.90;;;;;;5050429;28;20486;-73
2024/01/19 09:02:24;;;;;;;53.08;24.20;;;0.40;99.90;;;;;;5058833;28;20071;-73
2024/01/19 09:04:50;;;;;;;51.30;23.55;;;0.40;99.90;;;;;;5058535;28;20385;-73
2024/01/19 09:07:15;;;;;;;51.63;23.05;;;0.40;99.90;;;;;;5048487;28;20025;-73
2024/01/19 09:09:41;;;;;;;44.97;22.20;;;0.40;99.90;;;;;;5058785;28;20043;-73
2024/01/19 09:12:07;;;;;;;45.72;22.38;;;0.40;99.90;;;;;;5064222;28;20028;-73
2024/01/19 09:14:34;;;;;;;43.70;22.25;;;0.50;99.90;;;;;;5031580;28;20025;-72
2024/01/19 09:16:59;;;;;;;53.25;24.30;;;0.60;99.90;;;;;;5026256;28;20507;-72
2024/01/19 09:19:25;;;;;;;45.60;22.63;;;0.60;99.90;;;;;;5043097;28;20042;-74
2024/01/19 09:21:51;;;;;;;45.38;22.80;;;0.70;99.90;;;;;;5044997;28;20427;-74
2024/01/19 09:24:17;;;;;;;46.30;23.30;;;0.70;99.90;;;;;;5043485;28;20053;-73
2024/01/19 09:26:43;;;;;;;55.05;24.77;;;0.70;99.90;;;;;;5042333;28;20048;-74
2024/01/19 09:29:10;;;;;;;51.72;24.27;;;0.80;99.90;;;;;;5043067;28;20478;-74
2024/01/19 09:31:46;;;;;;;51.25;24.58;;;0.90;99.90;;;;;;5040680;28;20021;-74
2024/01/19 09:34:12;;;;;;;49.45;25.98;;;0.90;99.90;;;;;;5036998;28;20040;-74
2024/01/19 09:36:39;;;;;;;48.63;24.48;;;0.90;99.90;;;;;;5042564;28;20036;-74
2024/01/19 09:39:08;;;;;;;48.47;25.42;;;1.00;99.90;;;;;;5043832;28;20437;-73
2024/01/19 09:41:39;;;;;;;49.85;25.27;;;1.10;99.90;;;;;;5041294;28;20044;-71
2024/01/19 09:44:17;;;;;;;52.20;25.13;;;1.20;99.90;;;;;;5039484;28;20100;-74
2024/01/19 09:46:52;;;;;;;50.80;23.52;;;1.10;99.90;;;;;;5037322;28;20017;-77
2024/01/19 09:49:36;;;;;;;49.67;21.95;;;1.30;99.90;;;;;;5038403;28;20490;-75
2024/01/19 09:55:32;;;;;;;50.15;24.70;;;1.60;99.90;;;;;;4933395;28;20066;-76
2024/01/19 09:57:58;;;;;;;51.30;24.98;;;1.70;99.90;;;;;;5017656;28;20024;-74
2024/01/19 10:00:24;;;;;;;48.75;23.27;;;1.80;99.90;;;;;;5025860;28;20037;-76
2024/01/19 10:02:52;;;;;;;40.20;22.30;;;1.80;99.90;;;;;;5046193;28;20025;-74
2024/01/19 10:05:19;;;;;;;43.03;22.83;;;1.90;99.90;;;;;;5041036;28;20044;-74
2024/01/19 10:07:49;;;;;;;47.38;23.90;;;1.90;99.90;;;;;;5039391;28;20583;-75
2024/01/19 10:10:15;;;;;;;40.28;22.65;;;1.90;99.90;;;;;;5039793;28;20465;-75
2024/01/19 10:12:45;;;;;;;46.03;25.38;;;1.90;99.90;;;;;;5041332;28;20111;-77
2024/01/19 10:15:13;;;;;;;52.25;23.20;;;1.90;99.90;;;;;;5044676;28;20029;-75
2024/01/19 10:17:41;;;;;;;46.92;23.55;;;2.00;99.90;;;;;;5044875;28;20029;-76
2024/01/19 10:20:10;;;;;;;40.95;23.30;;;2.00;99.90;;;;;;5044069;28;20036;-75
2024/01/19 10:22:36;;;;;;;42.22;23.10;;;2.00;99.90;;;;;;5043451;28;20044;-76
2024/01/19 10:25:12;;;;;;;48.33;23.08;;;2.20;99.90;;;;;;5044237;28;20507;-76
2024/01/19 10:27:53;;;;;;;45.60;22.00;;;2.30;99.90;;;;;;5041671;28;20032;-76
2024/01/19 10:30:22;;;;;;;40.90;22.83;;;2.50;99.90;;;;;;5042081;28;20026;-76
2024/01/19 10:32:50;;;;;;;44.55;21.88;;;2.50;99.90;;;;;;5045250;28;20056;-76
2024/01/19 10:35:18;;;;;;;41.20;22.10;;;2.60;99.90;;;;;;5042001;28;20064;-78
2024/01/19 10:37:44;;;;;;;44.45;22.35;;;2.70;99.90;;;;;;5041275;28;20030;-78
2024/01/19 10:40:20;;;;;;;41.72;21.67;;;2.80;99.90;;;;;;5041941;28;20044;-78
2024/01/19 10:42:48;;;;;;;44.35;22.90;;;2.80;99.90;;;;;;5046127;28;20021;-78
2024/01/19 10:45:17;;;;;;;40.47;22.92;;;2.70;99.90;;;;;;5042773;28;20147;-78
2024/01/19 10:47:47;;;;;;;45.58;22.95;;;2.70;99.90;;;;;;5040850;28;20100;-78
2024/01/19 10:50:14;;;;;;;46.25;22.00;;;2.80;99.90;;;;;;5040227;28;20017;-78
2024/01/19 10:52:44;;;;;;;47.08;23.05;;;2.70;99.90;;;;;;5043000;28;20520;-77
2024/01/19 10:55:26;;;;;;;47.55;23.98;;;2.70;99.90;;;;;;5043008;28;20032;-77
2024/01/19 10:57:53;;;;;;;44.47;24.42;;;2.60;99.90;;;;;;5041398;28;20504;-77
2024/01/19 11:00:27;;;;;;;40.95;23.02;;;2.70;99.90;;;;;;5039956;28;20034;-77
2024/01/19 11:02:55;;;;;;;46.55;22.75;;;2.80;99.90;;;;;;5047333;28;20055;-76
2024/01/19 11:05:21;;;;;;;49.17;27.17;;;2.90;99.90;;;;;;5039012;28;20078;-77
2024/01/19 11:07:53;;;;;;;48.22;25.83;;;2.90;99.90;;;;;;5044092;28;20041;-77
2024/01/19 11:10:20;;;;;;;47.00;25.50;;;2.80;99.90;;;;;;5043125;28;20061;-85
2024/01/19 11:12:57;;;;;;;58.60;26.88;;;2.90;99.90;;;;;;5043282;28;20504;-78
2024/01/19 11:15:35;;;;;;;48.40;25.85;;;2.70;99.90;;;;;;5043697;28;20028;-78
2024/01/19 11:18:03;;;;;;;53.63;27.75;;;2.70;99.90;;;;;;5040299;28;20068;-79
2024/01/19 11:20:31;;;;;;;48.67;26.15;;;2.70;99.90;;;;;;5043718;28;20033;-77
2024/01/19 11:22:57;;;;;;;55.17;26.83;;;2.70;99.90;;;;;;5039644;28;20025;-80
2024/01/19 11:25:36;;;;;;;50.85;27.08;;;2.70;99.90;;;;;;5044748;28;20116;-80
2024/01/19 11:28:24;;;;;;;57.17;26.90;;;2.70;99.90;;;;;;5043014;28;20024;-80
2024/01/19 11:31:08;;;;;;;52.25;27.50;;;2.70;99.90;;;;;;5041758;28;20025;-79
2024/01/19 11:33:34;;;;;;;51.80;27.90;;;2.70;99.90;;;;;;5046922;28;20108;-80
2024/01/19 11:35:59;;;;;;;52.72;28.08;;;2.80;99.90;;;;;;5043262;28;20104;-81
2024/01/19 11:38:48;;;;;;;54.78;29.52;;;2.90;99.90;;;;;;5040476;28;20068;-81
2024/01/19 11:41:32;;;;;;;55.28;28.38;;;2.90;99.90;;;;;;5041353;28;20055;-82
2024/01/19 11:43:59;;;;;;;47.70;26.40;;;2.80;99.90;;;;;;5043402;28;20071;-81
2024/01/19 11:46:50;;;;;;;46.00;24.73;;;3.00;99.90;;;;;;5040626;28;20458;-81
2024/01/19 11:49:35;;;;;;;51.03;25.45;;;3.00;99.90;;;;;;5040934;28;20020;-83
2024/01/19 11:52:19;;;;;;;54.35;24.77;;;3.00;99.90;;;;;;5040830;28;20043;-83
2024/01/19 11:54:45;;;;;;;51.10;25.80;;;3.00;99.90;;;;;;5044850;28;20059;-83
2024/01/19 11:57:22;;;;;;;52.83;26.25;;;3.00;99.90;;;;;;5041041;28;20052;-84
2024/01/19 11:59:48;;;;;;;53.15;27.80;;;3.10;99.90;;;;;;5042692;28;20033;-84
2024/01/19 12:02:27;;;;;;;50.00;28.13;;;3.20;99.90;;;;;;5044348;28;20112;-83
2024/01/19 12:04:55;;;;;;;45.83;24.30;;;3.10;99.90;;;;;;5041249;28;20017;-83
2024/01/19 12:07:24;;;;;;;50.15;25.30;;;3.10;99.90;;;;;;5039836;28;20018;-84
2024/01/19 12:10:22;;;;;;;54.25;25.40;;;3.20;99.90;;;;;;5043717;28;20036;-84
2024/01/19 12:12:49;;;;;;;51.42;25.60;;;3.10;99.90;;;;;;5040370;28;20033;-84
2024/01/19 12:15:19;;;;;;;49.15;23.90;;;3.10;99.90;;;;;;5036797;28;20029;-83
2024/01/19 12:17:45;;;;;;;49.55;26.02;;;3.00;99.90;;;;;;5039314;28;20031;-83
2024/01/19 12:20:16;;;;;;;48.47;25.77;;;3.00;99.90;;;;;;5041488;28;20123;-84
2024/01/19 12:22:44;;;;;;;52.95;25.00;;;3.10;99.90;;;;;;5041772;28;20070;-84
2024/01/19 12:25:13;;;;;;;53.00;26.38;;;3.20;99.90;;;;;;5041540;28;20074;-84
2024/01/19 12:27:40;;;;;;;49.75;25.00;;;3.20;99.90;;;;;;5044512;28;20032;-84
2024/01/19 12:30:13;;;;;;;48.72;25.90;;;3.20;99.90;;;;;;5039537;28;20025;-85
2024/01/19 12:32:39;;;;;;;52.63;26.90;;;3.10;99.90;;;;;;5040104;28;20025;-84
2024/01/19 12:35:06;;;;;;;54.00;24.40;;;3.10;99.90;;;;;;5041415;28;20032;-85
2024/01/19 12:37:32;;;;;;;46.72;26.48;;;3.20;99.90;;;;;;5041089;28;20048;-84
2024/01/19 12:40:21;;;;;;;46.30;23.85;;;3.20;99.90;;;;;;5043963;28;20037;-85